sensor_id;sensor_type;location;lat;lon;timestamp;temperature;humidity
33023;DHT22;19390;51.460;5.710;2023-04-06T00:00:37;0.70;99.90
33023;DHT22;19390;51.460;5.710;2023-04-06T00:03:03;0.80;99.90
33023;DHT22;19390;51.460;5.710;2023-04-06T00:05:28;0.50;99.90
33023;DHT22;19390;51.460;5.710;2023-04-06T00:07:59;0.30;99.90
33023;DHT22;19390;51.460;5.710;2023-04-06T00:10:25;0.20;99.90
33023;DHT22;19390;51.460;5.710;2023-04-06T00:12:50;0.20;99.90
33023;DHT22;19390;51.460;5.710;2023-04-06T00:15:16;0.20;99.90
33023;DHT22;19390;51.460;5.710;2023-04-06T00:17:41;0.20;99.90
33023;DHT22;19390;51.460;5.710;2023-04-06T00:20:07;0.20;99.90
33023;DHT22;19390;51.460;5.710;2023-04-06T00:22:33;0.20;99.90
33023;DHT22;19390;51.460;5.710;2023-04-06T00:24:59;0.20;99.90
33023;DHT22;19390;51.460;5.710;2023-04-06T00:27:24;0.10;99.90
33023;DHT22;19390;51.460;5.710;2023-04-06T00:29:50;0.10;99.90
33023;DHT22;19390;51.460;5.710;2023-04-06T00:32:16;0.10;99.90
33023;DHT22;19390;51.460;5.710;2023-04-06T00:34:41;0.10;99.90
33023;DHT22;19390;51.460;5.710;2023-04-06T00:37:07;0.10;99.90
33023;DHT22;19390;51.460;5.710;2023-04-06T00:39:32;0.10;99.90
33023;DHT22;19390;51.460;5.710;2023-04-06T00:41:58;0.10;99.90
33023;DHT22;19390;51.460;5.710;2023-04-06T00:44:24;0.00;99.90
33023;DHT22;19390;51.460;5.710;2023-04-06T00:46:50;0.00;99.90
33023;DHT22;19390;51.460;5.710;2023-04-06T00:49:15;0.10;99.90
33023;DHT22;19390;51.460;5.710;2023-04-06T00:51:41;0.00;99.90
33023;DHT22;19390;51.460;5.710;2023-04-06T00:54:07;-0.10;99.90
33023;DHT22;19390;51.460;5.710;2023-04-06T00:56:32;-0.10;99.90
33023;DHT22;19390;51.460;5.710;2023-04-06T00:58:58;0.00;99.90
33023;DHT22;19390;51.460;5.710;2023-04-06T01:01:24;0.20;99.90
33023;DHT22;19390;51.460;5.710;2023-04-06T01:03:51;0.30;99.90
33023;DHT22;19390;51.460;5.710;2023-04-06T01:06:17;0.20;99.90
33023;DHT22;19390;51.460;5.710;2023-04-06T01:08:42;0.20;99.90
33023;DHT22;19390;51.460;5.710;2023-04-06T01:11:08;0.10;99.90
33023;DHT22;19390;51.460;5.710;2023-04-06T01:13:33;0.10;99.90
33023;DHT22;19390;51.460;5.710;2023-04-06T01:15:59;0.00;99.90
33023;DHT22;19390;51.460;5.710;2023-04-06T01:18:26;0.00;99.90
33023;DHT22;19390;51.460;5.710;2023-04-06T01:20:52;0.00;99.90
33023;DHT22;19390;51.460;5.710;2023-04-06T01:23:17;0.00;99.90
33023;DHT22;19390;51.460;5.710;2023-04-06T01:25:43;-0.20;99.90
33023;DHT22;19390;51.460;5.710;2023-04-06T01:28:08;-0.20;99.90
33023;DHT22;19390;51.460;5.710;2023-04-06T01:30:34;-0.20;99.90
33023;DHT22;19390;51.460;5.710;2023-04-06T01:33:00;-0.30;99.90
33023;DHT22;19390;51.460;5.710;2023-04-06T01:35:27;-0.20;99.90
33023;DHT22;19390;51.460;5.710;2023-04-06T01:37:52;-0.20;99.90
33023;DHT22;19390;51.460;5.710;2023-04-06T01:40:18;-0.30;99.90
33023;DHT22;19390;51.460;5.710;2023-04-06T01:42:44;-0.40;99.90
33023;DHT22;19390;51.460;5.710;2023-04-06T01:45:09;-0.40;99.90
33023;DHT22;19390;51.460;5.710;2023-04-06T01:47:35;-0.50;99.90
33023;DHT22;19390;51.460;5.710;2023-04-06T01:50:01;-0.30;99.90
33023;DHT22;19390;51.460;5.710;2023-04-06T01:52:28;-0.40;99.90
33023;DHT22;19390;51.460;5.710;2023-04-06T01:54:54;-0.50;99.90
33023;DHT22;19390;51.460;5.710;2023-04-06T01:57:20;-0.50;99.90
33023;DHT22;19390;51.460;5.710;2023-04-06T01:59:45;-0.60;99.90
33023;DHT22;19390;51.460;5.710;2023-04-06T02:02:11;-0.50;99.90
33023;DHT22;19390;51.460;5.710;2023-04-06T02:04:38;-0.50;99.90
33023;DHT22;19390;51.460;5.710;2023-04-06T02:07:04;-0.30;99.90
33023;DHT22;19390;51.460;5.710;2023-04-06T02:09:29;-0.30;99.90
33023;DHT22;19390;51.460;5.710;2023-04-06T02:11:55;-0.30;99.90
33023;DHT22;19390;51.460;5.710;2023-04-06T02:14:23;-0.20;99.90
33023;DHT22;19390;51.460;5.710;2023-04-06T02:16:49;-0.30;99.90
33023;DHT22;19390;51.460;5.710;2023-04-06T02:19:15;-0.20;99.90
33023;DHT22;19390;51.460;5.710;2023-04-06T02:21:41;-0.10;99.90
33023;DHT22;19390;51.460;5.710;2023-04-06T02:24:06;0.00;99.90
33023;DHT22;19390;51.460;5.710;2023-04-06T02:26:32;0.10;99.90
33023;DHT22;19390;51.460;5.710;2023-04-06T02:28:58;0.10;99.90
33023;DHT22;19390;51.460;5.710;2023-04-06T02:31:23;0.20;99.90
33023;DHT22;19390;51.460;5.710;2023-04-06T02:33:49;0.40;99.90
33023;DHT22;19390;51.460;5.710;2023-04-06T02:36:14;0.40;99.90
33023;DHT22;19390;51.460;5.710;2023-04-06T02:38:40;0.50;99.90
33023;DHT22;19390;51.460;5.710;2023-04-06T02:41:05;0.60;99.90
33023;DHT22;19390;51.460;5.710;2023-04-06T02:43:32;0.70;99.90
33023;DHT22;19390;51.460;5.710;2023-04-06T02:45:58;0.70;99.90
33023;DHT22;19390;51.460;5.710;2023-04-06T02:48:23;0.70;99.90
33023;DHT22;19390;51.460;5.710;2023-04-06T02:50:49;0.70;99.90
33023;DHT22;19390;51.460;5.710;2023-04-06T02:53:15;0.80;99.90
33023;DHT22;19390;51.460;5.710;2023-04-06T02:55:40;0.90;99.90
33023;DHT22;19390;51.460;5.710;2023-04-06T02:58:06;0.90;99.90
33023;DHT22;19390;51.460;5.710;2023-04-06T03:00:32;0.90;99.90
33023;DHT22;19390;51.460;5.710;2023-04-06T03:02:57;0.90;99.90
33023;DHT22;19390;51.460;5.710;2023-04-06T03:05:23;1.00;99.90
33023;DHT22;19390;51.460;5.710;2023-04-06T03:07:49;1.00;99.90
33023;DHT22;19390;51.460;5.710;2023-04-06T03:10:14;1.10;99.90
33023;DHT22;19390;51.460;5.710;2023-04-06T03:12:40;1.10;99.90
33023;DHT22;19390;51.460;5.710;2023-04-06T03:15:07;1.20;99.90
33023;DHT22;19390;51.460;5.710;2023-04-06T03:17:33;1.10;99.90
33023;DHT22;19390;51.460;5.710;2023-04-06T03:19:58;1.20;99.90
33023;DHT22;19390;51.460;5.710;2023-04-06T03:22:24;1.30;99.90
33023;DHT22;19390;51.460;5.710;2023-04-06T03:24:50;1.40;99.90
33023;DHT22;19390;51.460;5.710;2023-04-06T03:27:15;1.50;99.90
33023;DHT22;19390;51.460;5.710;2023-04-06T03:29:41;1.60;99.90
33023;DHT22;19390;51.460;5.710;2023-04-06T03:32:07;1.60;99.90
33023;DHT22;19390;51.460;5.710;2023-04-06T03:34:32;1.60;99.90
33023;DHT22;19390;51.460;5.710;2023-04-06T03:36:58;1.80;99.90
33023;DHT22;19390;51.460;5.710;2023-04-06T03:39:23;1.80;99.90
33023;DHT22;19390;51.460;5.710;2023-04-06T03:41:49;1.70;99.90
33023;DHT22;19390;51.460;5.710;2023-04-06T03:44:15;1.70;99.90
33023;DHT22;19390;51.460;5.710;2023-04-06T03:46:40;1.80;99.90
33023;DHT22;19390;51.460;5.710;2023-04-06T03:49:06;1.80;99.90
33023;DHT22;19390;51.460;5.710;2023-04-06T03:51:32;1.90;99.90
33023;DHT22;19390;51.460;5.710;2023-04-06T03:53:57;2.00;99.90
33023;DHT22;19390;51.460;5.710;2023-04-06T03:56:23;2.00;99.90
33023;DHT22;19390;51.460;5.710;2023-04-06T03:58:49;1.90;99.90
33023;DHT22;19390;51.460;5.710;2023-04-06T04:01:17;1.90;99.90
33023;DHT22;19390;51.460;5.710;2023-04-06T04:03:43;1.90;99.90
33023;DHT22;19390;51.460;5.710;2023-04-06T04:06:09;2.00;99.90
33023;DHT22;19390;51.460;5.710;2023-04-06T04:08:35;1.90;99.90
33023;DHT22;19390;51.460;5.710;2023-04-06T04:11:01;1.90;99.90
33023;DHT22;19390;51.460;5.710;2023-04-06T04:13:26;1.90;99.90
33023;DHT22;19390;51.460;5.710;2023-04-06T04:15:52;1.90;99.90
33023;DHT22;19390;51.460;5.710;2023-04-06T04:18:18;1.90;99.90
33023;DHT22;19390;51.460;5.710;2023-04-06T04:20:44;2.00;99.90
33023;DHT22;19390;51.460;5.710;2023-04-06T04:23:10;1.90;99.90
33023;DHT22;19390;51.460;5.710;2023-04-06T04:25:35;1.90;99.90
33023;DHT22;19390;51.460;5.710;2023-04-06T04:28:01;1.90;99.90
33023;DHT22;19390;51.460;5.710;2023-04-06T04:30:27;1.90;99.90
33023;DHT22;19390;51.460;5.710;2023-04-06T04:32:53;1.90;99.90
33023;DHT22;19390;51.460;5.710;2023-04-06T04:35:18;2.10;99.90
33023;DHT22;19390;51.460;5.710;2023-04-06T04:37:44;2.00;99.90
33023;DHT22;19390;51.460;5.710;2023-04-06T04:40:10;2.00;99.90
33023;DHT22;19390;51.460;5.710;2023-04-06T04:42:36;2.00;99.90
33023;DHT22;19390;51.460;5.710;2023-04-06T04:45:01;2.00;99.90
33023;DHT22;19390;51.460;5.710;2023-04-06T04:47:27;2.00;99.90
33023;DHT22;19390;51.460;5.710;2023-04-06T04:49:52;2.00;99.90
33023;DHT22;19390;51.460;5.710;2023-04-06T04:52:18;2.00;99.90
33023;DHT22;19390;51.460;5.710;2023-04-06T04:54:43;2.10;99.90
33023;DHT22;19390;51.460;5.710;2023-04-06T04:57:09;2.10;99.90
33023;DHT22;19390;51.460;5.710;2023-04-06T04:59:35;2.20;99.90
33023;DHT22;19390;51.460;5.710;2023-04-06T05:02:00;2.20;99.90
33023;DHT22;19390;51.460;5.710;2023-04-06T05:04:26;2.10;99.90
33023;DHT22;19390;51.460;5.710;2023-04-06T05:07:12;2.10;99.90
33023;DHT22;19390;51.460;5.710;2023-04-06T05:09:38;2.10;99.90
33023;DHT22;19390;51.460;5.710;2023-04-06T05:12:03;2.10;99.90
33023;DHT22;19390;51.460;5.710;2023-04-06T05:14:29;2.10;99.90
33023;DHT22;19390;51.460;5.710;2023-04-06T05:16:55;2.10;99.90
33023;DHT22;19390;51.460;5.710;2023-04-06T05:19:20;2.20;99.90
33023;DHT22;19390;51.460;5.710;2023-04-06T05:21:46;2.20;99.90
33023;DHT22;19390;51.460;5.710;2023-04-06T05:24:11;2.40;99.90
33023;DHT22;19390;51.460;5.710;2023-04-06T05:26:37;2.70;99.90
33023;DHT22;19390;51.460;5.710;2023-04-06T05:29:03;2.80;99.90
33023;DHT22;19390;51.460;5.710;2023-04-06T05:31:29;2.80;99.90
33023;DHT22;19390;51.460;5.710;2023-04-06T05:33:55;2.80;99.90
33023;DHT22;19390;51.460;5.710;2023-04-06T05:36:20;3.00;99.90
33023;DHT22;19390;51.460;5.710;2023-04-06T05:38:46;3.00;99.90
33023;DHT22;19390;51.460;5.710;2023-04-06T05:41:12;3.00;99.90
33023;DHT22;19390;51.460;5.710;2023-04-06T05:43:37;3.00;99.90
33023;DHT22;19390;51.460;5.710;2023-04-06T05:46:03;3.10;99.90
33023;DHT22;19390;51.460;5.710;2023-04-06T05:48:29;3.20;99.90
33023;DHT22;19390;51.460;5.710;2023-04-06T05:50:55;3.30;99.90
33023;DHT22;19390;51.460;5.710;2023-04-06T05:53:21;3.40;81.70
33023;DHT22;19390;51.460;5.710;2023-04-06T05:55:47;3.50;33.70
33023;DHT22;19390;51.460;5.710;2023-04-06T05:58:12;3.50;41.90
33023;DHT22;19390;51.460;5.710;2023-04-06T06:00:38;3.60;1.00
33023;DHT22;19390;51.460;5.710;2023-04-06T06:03:04;3.70;1.00
33023;DHT22;19390;51.460;5.710;2023-04-06T06:05:31;3.80;1.00
33023;DHT22;19390;51.460;5.710;2023-04-06T06:07:56;3.90;1.00
33023;DHT22;19390;51.460;5.710;2023-04-06T06:10:22;4.90;1.00
33023;DHT22;19390;51.460;5.710;2023-04-06T06:12:48;4.50;1.00
33023;DHT22;19390;51.460;5.710;2023-04-06T06:15:13;4.50;37.40
33023;DHT22;19390;51.460;5.710;2023-04-06T06:17:39;4.60;99.90
33023;DHT22;19390;51.460;5.710;2023-04-06T06:20:08;4.80;99.90
33023;DHT22;19390;51.460;5.710;2023-04-06T06:22:34;4.60;1.00
33023;DHT22;19390;51.460;5.710;2023-04-06T06:25:00;4.40;1.00
33023;DHT22;19390;51.460;5.710;2023-04-06T06:27:25;4.50;1.00
33023;DHT22;19390;51.460;5.710;2023-04-06T06:29:51;4.70;99.90
33023;DHT22;19390;51.460;5.710;2023-04-06T06:32:17;4.60;1.00
33023;DHT22;19390;51.460;5.710;2023-04-06T06:34:43;4.80;1.00
33023;DHT22;19390;51.460;5.710;2023-04-06T06:37:08;4.90;1.00
33023;DHT22;19390;51.460;5.710;2023-04-06T06:39:34;5.00;99.90
33023;DHT22;19390;51.460;5.710;2023-04-06T06:41:59;4.90;99.90
33023;DHT22;19390;51.460;5.710;2023-04-06T06:44:28;5.10;1.00
33023;DHT22;19390;51.460;5.710;2023-04-06T06:46:53;5.20;1.00
33023;DHT22;19390;51.460;5.710;2023-04-06T06:49:19;5.20;1.00
33023;DHT22;19390;51.460;5.710;2023-04-06T06:51:45;5.40;1.00
33023;DHT22;19390;51.460;5.710;2023-04-06T06:54:12;5.50;1.00
33023;DHT22;19390;51.460;5.710;2023-04-06T06:56:38;5.60;1.00
33023;DHT22;19390;51.460;5.710;2023-04-06T06:59:04;5.60;1.00
33023;DHT22;19390;51.460;5.710;2023-04-06T07:01:32;5.80;1.00
33023;DHT22;19390;51.460;5.710;2023-04-06T07:03:58;5.60;1.00
33023;DHT22;19390;51.460;5.710;2023-04-06T07:06:23;5.60;99.90
33023;DHT22;19390;51.460;5.710;2023-04-06T07:08:49;5.70;99.90
33023;DHT22;19390;51.460;5.710;2023-04-06T07:11:14;5.80;99.90
33023;DHT22;19390;51.460;5.710;2023-04-06T07:13:40;6.00;1.00
33023;DHT22;19390;51.460;5.710;2023-04-06T07:16:06;5.80;99.90
33023;DHT22;19390;51.460;5.710;2023-04-06T07:18:31;6.00;99.90
33023;DHT22;19390;51.460;5.710;2023-04-06T07:20:57;6.00;99.90
33023;DHT22;19390;51.460;5.710;2023-04-06T07:23:23;6.00;1.00
33023;DHT22;19390;51.460;5.710;2023-04-06T07:25:48;6.20;99.90
33023;DHT22;19390;51.460;5.710;2023-04-06T07:28:17;6.30;1.00
33023;DHT22;19390;51.460;5.710;2023-04-06T07:30:43;6.10;1.00
33023;DHT22;19390;51.460;5.710;2023-04-06T07:33:08;6.40;1.00
33023;DHT22;19390;51.460;5.710;2023-04-06T07:35:34;6.30;1.00
33023;DHT22;19390;51.460;5.710;2023-04-06T07:38:02;6.50;1.00
33023;DHT22;19390;51.460;5.710;2023-04-06T07:40:27;6.50;1.00
33023;DHT22;19390;51.460;5.710;2023-04-06T07:42:53;6.70;1.00
33023;DHT22;19390;51.460;5.710;2023-04-06T07:45:19;6.60;1.00
33023;DHT22;19390;51.460;5.710;2023-04-06T07:47:45;6.60;1.00
33023;DHT22;19390;51.460;5.710;2023-04-06T07:50:11;6.90;99.90
33023;DHT22;19390;51.460;5.710;2023-04-06T07:52:37;6.80;1.00
33023;DHT22;19390;51.460;5.710;2023-04-06T07:55:03;6.70;1.00
33023;DHT22;19390;51.460;5.710;2023-04-06T07:57:29;6.90;1.00
33023;DHT22;19390;51.460;5.710;2023-04-06T07:59:55;6.90;67.50
33023;DHT22;19390;51.460;5.710;2023-04-06T08:02:20;6.90;99.90
33023;DHT22;19390;51.460;5.710;2023-04-06T08:04:46;6.90;1.00
33023;DHT22;19390;51.460;5.710;2023-04-06T08:07:12;6.80;66.60
33023;DHT22;19390;51.460;5.710;2023-04-06T08:09:37;7.00;99.90
33023;DHT22;19390;51.460;5.710;2023-04-06T08:12:03;7.00;99.90
33023;DHT22;19390;51.460;5.710;2023-04-06T08:14:29;7.30;99.90
33023;DHT22;19390;51.460;5.710;2023-04-06T08:16:55;7.50;77.40
33023;DHT22;19390;51.460;5.710;2023-04-06T08:19:20;7.30;1.00
33023;DHT22;19390;51.460;5.710;2023-04-06T08:21:46;7.40;1.00
33023;DHT22;19390;51.460;5.710;2023-04-06T08:24:13;7.30;1.00
33023;DHT22;19390;51.460;5.710;2023-04-06T08:26:38;7.50;1.00
33023;DHT22;19390;51.460;5.710;2023-04-06T08:29:04;7.60;98.70
33023;DHT22;19390;51.460;5.710;2023-04-06T08:31:35;7.60;99.90
33023;DHT22;19390;51.460;5.710;2023-04-06T08:34:03;7.50;1.00
33023;DHT22;19390;51.460;5.710;2023-04-06T08:36:29;7.50;1.00
33023;DHT22;19390;51.460;5.710;2023-04-06T08:38:54;7.70;1.00
33023;DHT22;19390;51.460;5.710;2023-04-06T08:41:20;7.90;1.00
33023;DHT22;19390;51.460;5.710;2023-04-06T08:46:24;7.80;99.90
33023;DHT22;19390;51.460;5.710;2023-04-06T08:48:56;8.00;99.90
33023;DHT22;19390;51.460;5.710;2023-04-06T08:51:23;8.10;1.00
33023;DHT22;19390;51.460;5.710;2023-04-06T08:53:52;8.20;99.90
33023;DHT22;19390;51.460;5.710;2023-04-06T08:56:20;8.20;1.00
33023;DHT22;19390;51.460;5.710;2023-04-06T08:58:46;8.40;1.00
33023;DHT22;19390;51.460;5.710;2023-04-06T09:01:13;8.50;1.00
33023;DHT22;19390;51.460;5.710;2023-04-06T09:03:40;8.30;1.00
33023;DHT22;19390;51.460;5.710;2023-04-06T09:06:08;8.20;1.00
33023;DHT22;19390;51.460;5.710;2023-04-06T09:08:35;8.50;1.00
33023;DHT22;19390;51.460;5.710;2023-04-06T09:11:02;8.50;99.90
33023;DHT22;19390;51.460;5.710;2023-04-06T09:13:28;8.40;99.90
33023;DHT22;19390;51.460;5.710;2023-04-06T09:16:04;8.90;1.00
33023;DHT22;19390;51.460;5.710;2023-04-06T09:18:33;9.20;99.90
33023;DHT22;19390;51.460;5.710;2023-04-06T09:21:04;8.80;99.90
33023;DHT22;19390;51.460;5.710;2023-04-06T09:23:30;9.00;1.00
33023;DHT22;19390;51.460;5.710;2023-04-06T09:26:12;8.90;1.00
33023;DHT22;19390;51.460;5.710;2023-04-06T09:28:52;9.30;1.00
33023;DHT22;19390;51.460;5.710;2023-04-06T09:31:29;9.60;1.00
33023;DHT22;19390;51.460;5.710;2023-04-06T09:33:56;9.60;1.00
33023;DHT22;19390;51.460;5.710;2023-04-06T09:36:35;9.70;1.00
33023;DHT22;19390;51.460;5.710;2023-04-06T09:39:04;9.90;1.00
33023;DHT22;19390;51.460;5.710;2023-04-06T09:41:34;9.90;1.00
33023;DHT22;19390;51.460;5.710;2023-04-06T09:44:08;9.90;1.00
33023;DHT22;19390;51.460;5.710;2023-04-06T09:46:40;9.90;1.00
33023;DHT22;19390;51.460;5.710;2023-04-06T09:49:07;10.40;1.00
33023;DHT22;19390;51.460;5.710;2023-04-06T09:51:41;11.00;99.90
33023;DHT22;19390;51.460;5.710;2023-04-06T09:54:09;11.20;99.90
33023;DHT22;19390;51.460;5.710;2023-04-06T09:56:50;11.00;17.10
33023;DHT22;19390;51.460;5.710;2023-04-06T10:01:55;10.60;99.90
33023;DHT22;19390;51.460;5.710;2023-04-06T10:05:20;11.10;99.90
33023;DHT22;19390;51.460;5.710;2023-04-06T10:07:45;11.50;99.90
33023;DHT22;19390;51.460;5.710;2023-04-06T10:10:12;10.90;99.90
33023;DHT22;19390;51.460;5.710;2023-04-06T10:12:40;10.90;1.00
33023;DHT22;19390;51.460;5.710;2023-04-06T10:15:06;10.90;99.90
33023;DHT22;19390;51.460;5.710;2023-04-06T10:17:32;11.10;99.90
33023;DHT22;19390;51.460;5.710;2023-04-06T10:20:04;11.20;1.00
33023;DHT22;19390;51.460;5.710;2023-04-06T10:22:41;10.80;1.00
33023;DHT22;19390;51.460;5.710;2023-04-06T10:25:09;10.60;1.00
33023;DHT22;19390;51.460;5.710;2023-04-06T10:27:35;10.60;1.00
33023;DHT22;19390;51.460;5.710;2023-04-06T10:30:05;10.60;99.90
33023;DHT22;19390;51.460;5.710;2023-04-06T10:32:35;10.70;1.00
33023;DHT22;19390;51.460;5.710;2023-04-06T10:35:11;10.20;99.90
33023;DHT22;19390;51.460;5.710;2023-04-06T10:38:01;10.40;1.00
33023;DHT22;19390;51.460;5.710;2023-04-06T10:40:27;10.40;1.00
33023;DHT22;19390;51.460;5.710;2023-04-06T10:42:54;10.70;1.00
33023;DHT22;19390;51.460;5.710;2023-04-06T10:45:22;10.20;99.90
33023;DHT22;19390;51.460;5.710;2023-04-06T10:47:48;10.10;1.00
33023;DHT22;19390;51.460;5.710;2023-04-06T10:50:15;10.30;99.90
33023;DHT22;19390;51.460;5.710;2023-04-06T10:52:45;10.00;1.00
33023;DHT22;19390;51.460;5.710;2023-04-06T10:55:13;10.30;1.00
33023;DHT22;19390;51.460;5.710;2023-04-06T10:57:40;10.00;1.00
33023;DHT22;19390;51.460;5.710;2023-04-06T11:00:07;10.00;99.90
33023;DHT22;19390;51.460;5.710;2023-04-06T11:02:36;10.00;99.90
33023;DHT22;19390;51.460;5.710;2023-04-06T11:05:03;10.10;1.00
33023;DHT22;19390;51.460;5.710;2023-04-06T11:07:29;9.70;1.00
33023;DHT22;19390;51.460;5.710;2023-04-06T11:09:56;9.70;99.90
33023;DHT22;19390;51.460;5.710;2023-04-06T11:12:23;9.60;1.00
33023;DHT22;19390;51.460;5.710;2023-04-06T11:15:00;9.70;1.00
33023;DHT22;19390;51.460;5.710;2023-04-06T11:17:35;9.90;99.90
33023;DHT22;19390;51.460;5.710;2023-04-06T11:20:02;9.50;1.00
33023;DHT22;19390;51.460;5.710;2023-04-06T11:22:30;9.40;99.90
33023;DHT22;19390;51.460;5.710;2023-04-06T11:25:06;9.40;1.00
33023;DHT22;19390;51.460;5.710;2023-04-06T11:27:36;9.10;99.90
33023;DHT22;19390;51.460;5.710;2023-04-06T11:30:02;9.30;1.00
33023;DHT22;19390;51.460;5.710;2023-04-06T11:32:28;9.00;1.00
33023;DHT22;19390;51.460;5.710;2023-04-06T11:34:54;8.90;1.00
33023;DHT22;19390;51.460;5.710;2023-04-06T11:37:26;8.80;1.00
33023;DHT22;19390;51.460;5.710;2023-04-06T11:39:54;8.70;1.00
33023;DHT22;19390;51.460;5.710;2023-04-06T11:42:27;8.60;1.00
33023;DHT22;19390;51.460;5.710;2023-04-06T11:44:55;8.60;99.90
33023;DHT22;19390;51.460;5.710;2023-04-06T11:47:32;8.60;99.90
33023;DHT22;19390;51.460;5.710;2023-04-06T11:50:06;8.60;99.90
33023;DHT22;19390;51.460;5.710;2023-04-06T11:52:32;8.50;54.40
33023;DHT22;19390;51.460;5.710;2023-04-06T11:54:58;8.50;99.90
33023;DHT22;19390;51.460;5.710;2023-04-06T11:57:24;8.50;99.90
33023;DHT22;19390;51.460;5.710;2023-04-06T11:59:51;8.50;99.90
33023;DHT22;19390;51.460;5.710;2023-04-06T12:02:17;8.40;99.90
33023;DHT22;19390;51.460;5.710;2023-04-06T12:04:43;8.40;99.90
33023;DHT22;19390;51.460;5.710;2023-04-06T12:07:09;8.70;99.90
33023;DHT22;19390;51.460;5.710;2023-04-06T12:09:35;8.70;99.90
33023;DHT22;19390;51.460;5.710;2023-04-06T12:12:01;9.00;99.90
33023;DHT22;19390;51.460;5.710;2023-04-06T12:14:27;8.80;99.90
33023;DHT22;19390;51.460;5.710;2023-04-06T12:16:53;9.00;99.90
33023;DHT22;19390;51.460;5.710;2023-04-06T12:19:18;9.50;99.90
33023;DHT22;19390;51.460;5.710;2023-04-06T12:21:44;9.20;99.90
33023;DHT22;19390;51.460;5.710;2023-04-06T12:24:09;9.20;99.90
33023;DHT22;19390;51.460;5.710;2023-04-06T12:26:35;8.90;99.90
33023;DHT22;19390;51.460;5.710;2023-04-06T12:29:02;9.00;99.90
33023;DHT22;19390;51.460;5.710;2023-04-06T12:31:37;9.10;99.90
33023;DHT22;19390;51.460;5.710;2023-04-06T12:34:08;9.30;99.90
33023;DHT22;19390;51.460;5.710;2023-04-06T12:36:33;9.00;99.90
33023;DHT22;19390;51.460;5.710;2023-04-06T12:38:59;8.80;99.90
33023;DHT22;19390;51.460;5.710;2023-04-06T12:41:29;8.70;99.90
33023;DHT22;19390;51.460;5.710;2023-04-06T12:43:55;8.80;99.90
33023;DHT22;19390;51.460;5.710;2023-04-06T12:46:21;8.80;99.90
33023;DHT22;19390;51.460;5.710;2023-04-06T12:48:47;8.80;99.90
33023;DHT22;19390;51.460;5.710;2023-04-06T12:51:13;8.90;99.90
33023;DHT22;19390;51.460;5.710;2023-04-06T12:53:38;8.90;99.90
33023;DHT22;19390;51.460;5.710;2023-04-06T12:56:12;8.70;99.90
33023;DHT22;19390;51.460;5.710;2023-04-06T12:58:38;8.70;99.90
33023;DHT22;19390;51.460;5.710;2023-04-06T13:01:07;8.80;99.90
33023;DHT22;19390;51.460;5.710;2023-04-06T13:03:33;8.80;99.90
33023;DHT22;19390;51.460;5.710;2023-04-06T13:06:00;8.80;99.90
33023;DHT22;19390;51.460;5.710;2023-04-06T13:08:26;8.80;99.90
33023;DHT22;19390;51.460;5.710;2023-04-06T13:10:53;8.70;99.90
33023;DHT22;19390;51.460;5.710;2023-04-06T13:13:23;8.70;99.90
33023;DHT22;19390;51.460;5.710;2023-04-06T13:15:50;8.80;99.90
33023;DHT22;19390;51.460;5.710;2023-04-06T13:18:16;8.60;99.90
33023;DHT22;19390;51.460;5.710;2023-04-06T13:20:42;8.80;99.90
33023;DHT22;19390;51.460;5.710;2023-04-06T13:23:08;9.10;99.90
33023;DHT22;19390;51.460;5.710;2023-04-06T13:25:33;9.00;99.90
33023;DHT22;19390;51.460;5.710;2023-04-06T13:27:59;8.80;99.90
33023;DHT22;19390;51.460;5.710;2023-04-06T13:30:25;8.90;99.90
33023;DHT22;19390;51.460;5.710;2023-04-06T13:32:51;9.00;99.90
33023;DHT22;19390;51.460;5.710;2023-04-06T13:35:17;9.00;99.90
33023;DHT22;19390;51.460;5.710;2023-04-06T13:37:43;8.80;99.90
33023;DHT22;19390;51.460;5.710;2023-04-06T13:40:09;8.90;99.90
33023;DHT22;19390;51.460;5.710;2023-04-06T13:42:35;8.80;99.90
33023;DHT22;19390;51.460;5.710;2023-04-06T13:45:01;8.90;99.90
33023;DHT22;19390;51.460;5.710;2023-04-06T13:47:27;8.90;99.90
33023;DHT22;19390;51.460;5.710;2023-04-06T13:49:53;9.00;99.90
33023;DHT22;19390;51.460;5.710;2023-04-06T13:52:20;8.60;99.90
33023;DHT22;19390;51.460;5.710;2023-04-06T13:54:46;8.80;99.90
33023;DHT22;19390;51.460;5.710;2023-04-06T13:57:12;9.10;99.90
33023;DHT22;19390;51.460;5.710;2023-04-06T13:59:38;8.80;99.90
33023;DHT22;19390;51.460;5.710;2023-04-06T14:02:06;8.90;99.90
33023;DHT22;19390;51.460;5.710;2023-04-06T14:04:32;8.70;99.90
33023;DHT22;19390;51.460;5.710;2023-04-06T14:06:58;8.70;99.90
33023;DHT22;19390;51.460;5.710;2023-04-06T14:09:24;8.80;99.90
33023;DHT22;19390;51.460;5.710;2023-04-06T14:11:50;8.80;99.90
33023;DHT22;19390;51.460;5.710;2023-04-06T14:14:16;8.20;99.90
33023;DHT22;19390;51.460;5.710;2023-04-06T14:16:43;8.50;99.90
33023;DHT22;19390;51.460;5.710;2023-04-06T14:19:10;8.50;99.90
33023;DHT22;19390;51.460;5.710;2023-04-06T14:21:38;8.50;99.90
33023;DHT22;19390;51.460;5.710;2023-04-06T14:24:05;8.50;99.90
33023;DHT22;19390;51.460;5.710;2023-04-06T14:26:31;8.70;99.90
33023;DHT22;19390;51.460;5.710;2023-04-06T14:28:58;8.40;99.90
33023;DHT22;19390;51.460;5.710;2023-04-06T14:31:24;8.60;99.90
33023;DHT22;19390;51.460;5.710;2023-04-06T14:33:49;8.50;99.90
33023;DHT22;19390;51.460;5.710;2023-04-06T14:36:15;9.40;99.90
33023;DHT22;19390;51.460;5.710;2023-04-06T14:38:41;9.30;99.90
33023;DHT22;19390;51.460;5.710;2023-04-06T14:41:08;9.50;99.90
33023;DHT22;19390;51.460;5.710;2023-04-06T14:43:39;9.70;99.90
33023;DHT22;19390;51.460;5.710;2023-04-06T14:46:05;9.70;99.90
33023;DHT22;19390;51.460;5.710;2023-04-06T14:48:35;9.70;99.90
33023;DHT22;19390;51.460;5.710;2023-04-06T14:51:00;9.70;99.90
33023;DHT22;19390;51.460;5.710;2023-04-06T14:53:26;10.20;99.90
33023;DHT22;19390;51.460;5.710;2023-04-06T14:55:53;10.10;99.90
33023;DHT22;19390;51.460;5.710;2023-04-06T14:58:19;10.00;99.90
33023;DHT22;19390;51.460;5.710;2023-04-06T15:00:45;10.00;99.90
33023;DHT22;19390;51.460;5.710;2023-04-06T15:03:11;9.90;99.90
33023;DHT22;19390;51.460;5.710;2023-04-06T15:05:37;9.80;99.90
33023;DHT22;19390;51.460;5.710;2023-04-06T15:08:03;9.70;99.90
33023;DHT22;19390;51.460;5.710;2023-04-06T15:10:31;9.50;99.90
33023;DHT22;19390;51.460;5.710;2023-04-06T15:12:57;9.70;99.90
33023;DHT22;19390;51.460;5.710;2023-04-06T15:15:23;9.90;99.90
33023;DHT22;19390;51.460;5.710;2023-04-06T15:17:48;9.80;99.90
33023;DHT22;19390;51.460;5.710;2023-04-06T15:20:14;9.50;99.90
33023;DHT22;19390;51.460;5.710;2023-04-06T15:22:39;9.60;99.90
33023;DHT22;19390;51.460;5.710;2023-04-06T15:25:05;9.40;99.90
33023;DHT22;19390;51.460;5.710;2023-04-06T15:27:31;9.50;99.90
33023;DHT22;19390;51.460;5.710;2023-04-06T15:29:57;9.50;99.90
33023;DHT22;19390;51.460;5.710;2023-04-06T15:32:24;9.50;99.90
33023;DHT22;19390;51.460;5.710;2023-04-06T15:34:50;9.40;99.90
33023;DHT22;19390;51.460;5.710;2023-04-06T15:37:16;9.30;99.90
33023;DHT22;19390;51.460;5.710;2023-04-06T15:39:42;9.40;99.90
33023;DHT22;19390;51.460;5.710;2023-04-06T15:42:08;9.40;99.90
33023;DHT22;19390;51.460;5.710;2023-04-06T15:44:34;9.40;99.90
33023;DHT22;19390;51.460;5.710;2023-04-06T15:46:59;9.40;99.90
33023;DHT22;19390;51.460;5.710;2023-04-06T15:49:25;9.40;99.90